createdAt,value
2018-12-25T00:00:18.315Z,1029.02
2018-12-25T00:01:18.281Z,1029.04
2018-12-25T00:02:18.244Z,1028.97
2018-12-25T00:03:18.213Z,1028.97
2018-12-25T00:04:18.175Z,1028.99
2018-12-25T00:05:18.140Z,1028.99
2018-12-25T00:06:18.107Z,1029.03
2018-12-25T00:07:18.070Z,1029.04
2018-12-25T00:08:18.040Z,1029.00
2018-12-25T00:09:18.002Z,1029.03
2018-12-25T00:10:17.970Z,1029.04
2018-12-25T00:11:17.934Z,1029.01
2018-12-25T00:12:17.896Z,1029.08
2018-12-25T00:13:17.862Z,1029.07
2018-12-25T00:14:17.827Z,1029.03
2018-12-25T00:15:17.791Z,1029.02
2018-12-25T00:16:17.758Z,1029.04
2018-12-25T00:17:17.765Z,1029.02
2018-12-25T00:18:17.687Z,1029.01
2018-12-25T00:19:17.652Z,1028.99
2018-12-25T00:20:17.618Z,1028.97
2018-12-25T00:21:17.585Z,1028.96
2018-12-25T00:22:17.551Z,1028.95
2018-12-25T00:23:17.514Z,1028.94
2018-12-25T00:24:17.479Z,1029.02
2018-12-25T00:25:17.446Z,1029.04
2018-12-25T00:26:17.411Z,1029.04
2018-12-25T00:27:17.376Z,1029.05
2018-12-25T00:28:17.342Z,1029.14
2018-12-25T00:29:17.307Z,1029.10
2018-12-25T00:30:17.277Z,1029.11
2018-12-25T00:31:17.238Z,1029.14
2018-12-25T00:32:17.204Z,1029.12
2018-12-25T00:33:17.169Z,1029.15
2018-12-25T00:34:17.135Z,1029.12
2018-12-25T00:35:17.100Z,1029.18
2018-12-25T00:36:17.066Z,1029.14
2018-12-25T00:37:17.031Z,1029.15
2018-12-25T00:38:16.997Z,1029.12
2018-12-25T00:39:16.961Z,1029.11
2018-12-25T00:40:16.929Z,1029.13
2018-12-25T00:41:16.892Z,1029.13
2018-12-25T00:42:16.858Z,1029.12
2018-12-25T00:43:16.823Z,1029.06
2018-12-25T00:44:16.789Z,1029.09
2018-12-25T00:45:18.368Z,1029.11
2018-12-25T00:46:16.720Z,1029.12
2018-12-25T00:47:16.686Z,1029.14
2018-12-25T00:48:16.653Z,1029.13
2018-12-25T00:49:16.617Z,1029.16
2018-12-25T00:50:16.584Z,1029.17
2018-12-25T00:51:16.548Z,1029.16
2018-12-25T00:52:16.515Z,1029.14
2018-12-25T00:53:16.479Z,1029.14
2018-12-25T00:54:16.448Z,1029.13
2018-12-25T00:55:16.411Z,1029.13
2018-12-25T00:56:16.377Z,1029.12
2018-12-25T00:57:16.343Z,1029.04
2018-12-25T00:58:16.310Z,1029.07
2018-12-25T00:59:16.273Z,1029.02
2018-12-25T01:00:16.242Z,1029.03
2018-12-25T01:01:16.206Z,1029.03
2018-12-25T01:02:16.417Z,1029.04
2018-12-25T01:03:16.136Z,1028.99
2018-12-25T01:04:16.111Z,1029.05
2018-12-25T01:05:16.071Z,1029.06
2018-12-25T01:06:16.036Z,1029.00
2018-12-25T01:07:16.000Z,1029.04
2018-12-25T01:08:15.965Z,1029.01
2018-12-25T01:09:15.933Z,1029.06
2018-12-25T01:10:15.898Z,1029.09
2018-12-25T01:11:15.862Z,1029.05
2018-12-25T01:12:15.829Z,1029.04
2018-12-25T01:13:15.796Z,1029.06
2018-12-25T01:14:15.761Z,1029.07
2018-12-25T01:15:15.726Z,1029.04
2018-12-25T01:16:15.694Z,1029.01
2018-12-25T01:17:15.656Z,1029.03
2018-12-25T01:18:15.624Z,1029.05
2018-12-25T01:19:23.033Z,1029.01
2018-12-25T01:20:15.558Z,1029.05
2018-12-25T01:21:15.520Z,1029.12
2018-12-25T01:22:15.486Z,1029.10
2018-12-25T01:23:15.452Z,1029.08
2018-12-25T01:24:15.417Z,1029.07
2018-12-25T01:25:15.384Z,1029.02
2018-12-25T01:26:15.349Z,1028.99
2018-12-25T01:27:15.314Z,1028.99
2018-12-25T01:28:15.281Z,1029.03
2018-12-25T01:29:15.246Z,1028.99
2018-12-25T01:30:15.213Z,1029.00
2018-12-25T01:31:15.177Z,1029.00
2018-12-25T01:32:15.144Z,1028.99
2018-12-25T01:33:15.111Z,1028.98
2018-12-25T01:34:15.076Z,1029.00
2018-12-25T01:35:15.041Z,1028.98
2018-12-25T01:36:15.008Z,1028.92
2018-12-25T01:37:14.972Z,1028.92
2018-12-25T01:38:14.940Z,1028.92
2018-12-25T01:39:14.905Z,1028.95
2018-12-25T01:40:14.870Z,1028.94
2018-12-25T01:41:14.884Z,1028.94
2018-12-25T01:42:14.801Z,1028.94
2018-12-25T01:43:14.766Z,1028.94
2018-12-25T01:44:14.732Z,1028.97
2018-12-25T01:45:14.698Z,1028.96
2018-12-25T01:46:14.672Z,1028.89
2018-12-25T01:47:14.631Z,1028.93
2018-12-25T01:48:14.596Z,1028.92
2018-12-25T01:49:14.563Z,1028.87
2018-12-25T01:50:14.529Z,1028.88
2018-12-25T01:51:14.492Z,1028.87
2018-12-25T01:52:14.458Z,1028.80
2018-12-25T01:53:14.424Z,1028.80
2018-12-25T01:54:14.391Z,1028.83
2018-12-25T01:55:14.356Z,1028.85
2018-12-25T01:56:14.323Z,1028.79
2018-12-25T01:57:14.287Z,1028.82
2018-12-25T01:58:14.307Z,1028.84
2018-12-25T01:59:14.220Z,1028.82
2018-12-25T02:00:14.185Z,1028.82
2018-12-25T02:01:14.151Z,1028.76
2018-12-25T02:02:14.116Z,1028.77
2018-12-25T02:03:14.082Z,1028.76
2018-12-25T02:04:14.052Z,1028.74
2018-12-25T02:05:14.013Z,1028.72
2018-12-25T02:06:13.980Z,1028.73
2018-12-25T02:07:13.949Z,1028.78
2018-12-25T02:08:13.911Z,1028.76
2018-12-25T02:09:13.877Z,1028.75
2018-12-25T02:10:13.842Z,1028.73
2018-12-25T02:11:13.808Z,1028.72
2018-12-25T02:12:13.774Z,1028.73
2018-12-25T02:13:13.740Z,1028.71
2018-12-25T02:14:13.706Z,1028.72
2018-12-25T02:15:13.670Z,1028.71
2018-12-25T02:16:13.640Z,1028.68
2018-12-25T02:17:13.604Z,1028.71
2018-12-25T02:18:13.571Z,1028.73
2018-12-25T02:19:13.535Z,1028.70
2018-12-25T02:20:13.500Z,1028.73
2018-12-25T02:21:13.468Z,1028.72
2018-12-25T02:22:13.433Z,1028.72
2018-12-25T02:23:13.397Z,1028.72
2018-12-25T02:24:13.364Z,1028.73
2018-12-25T02:25:13.331Z,1028.70
2018-12-25T02:26:13.296Z,1028.67
2018-12-25T02:27:13.261Z,1028.65
2018-12-25T02:28:13.227Z,1028.62
2018-12-25T02:29:13.192Z,1028.64
2018-12-25T02:30:13.159Z,1028.58
2018-12-25T02:31:13.125Z,1028.60
2018-12-25T02:32:13.091Z,1028.57
2018-12-25T02:33:13.057Z,1028.52
2018-12-25T02:34:13.021Z,1028.51
2018-12-25T02:35:12.992Z,1028.54
2018-12-25T02:36:12.954Z,1028.52
2018-12-25T02:37:12.919Z,1028.54
2018-12-25T02:38:12.887Z,1028.53
2018-12-25T02:39:12.850Z,1028.54
2018-12-25T02:40:12.817Z,1028.58
2018-12-25T02:41:12.781Z,1028.55
2018-12-25T02:42:12.748Z,1028.64
2018-12-25T02:43:12.715Z,1028.65
2018-12-25T02:44:12.681Z,1028.63
2018-12-25T02:45:12.646Z,1028.66
2018-12-25T02:46:12.611Z,1028.64
2018-12-25T02:47:12.584Z,1028.65
2018-12-25T02:48:12.544Z,1028.66
2018-12-25T02:49:12.508Z,1028.66
2018-12-25T02:50:12.478Z,1028.62
2018-12-25T02:51:12.440Z,1028.62
2018-12-25T02:52:12.406Z,1028.59
2018-12-25T02:53:12.371Z,1028.57
2018-12-25T02:54:12.337Z,1028.58
2018-12-25T02:55:12.302Z,1028.56
2018-12-25T02:56:12.270Z,1028.55
2018-12-25T02:57:12.238Z,1028.58
2018-12-25T02:58:12.199Z,1028.51
2018-12-25T02:59:12.166Z,1028.54
2018-12-25T03:00:12.134Z,1028.56
2018-12-25T03:01:12.096Z,1028.56
2018-12-25T03:02:12.071Z,1028.52
2018-12-25T03:03:12.028Z,1028.55
2018-12-25T03:04:11.999Z,1028.63
2018-12-25T03:05:12.045Z,1028.63
2018-12-25T03:06:11.926Z,1028.59
2018-12-25T03:07:11.892Z,1028.63
2018-12-25T03:08:11.871Z,1028.64
2018-12-25T03:09:11.824Z,1028.54
2018-12-25T03:10:11.791Z,1028.56
2018-12-25T03:11:11.757Z,1028.57
2018-12-25T03:12:11.720Z,1028.54
2018-12-25T03:13:11.686Z,1028.54
2018-12-25T03:14:11.651Z,1028.50
2018-12-25T03:15:11.618Z,1028.48
2018-12-25T03:16:11.585Z,1028.49
2018-12-25T03:17:11.555Z,1028.48
2018-12-25T03:18:11.515Z,1028.42
2018-12-25T03:19:11.481Z,1028.45
2018-12-25T03:20:11.445Z,1028.43
2018-12-25T03:21:11.410Z,1028.41
2018-12-25T03:22:11.378Z,1028.44
2018-12-25T03:23:11.342Z,1028.41
2018-12-25T03:24:11.307Z,1028.39
2018-12-25T03:25:11.274Z,1028.37
2018-12-25T03:26:11.239Z,1028.36
2018-12-25T03:27:11.203Z,1028.36
2018-12-25T03:28:11.169Z,1028.35
2018-12-25T03:29:11.143Z,1028.42
2018-12-25T03:30:11.105Z,1028.39
2018-12-25T03:31:11.067Z,1028.35
2018-12-25T03:32:11.032Z,1028.41
2018-12-25T03:33:10.998Z,1028.41
2018-12-25T03:34:10.962Z,1028.47
2018-12-25T03:35:10.927Z,1028.49
2018-12-25T03:36:10.892Z,1028.48
2018-12-25T03:37:10.860Z,1028.52
2018-12-25T03:38:10.825Z,1028.52
2018-12-25T03:39:10.789Z,1028.51
2018-12-25T03:40:10.755Z,1028.50
2018-12-25T03:41:10.721Z,1028.50
2018-12-25T03:42:10.685Z,1028.44
2018-12-25T03:43:10.651Z,1028.40
2018-12-25T03:44:10.620Z,1028.37
2018-12-25T03:45:10.583Z,1028.37
2018-12-25T03:46:10.549Z,1028.33
2018-12-25T03:47:10.512Z,1028.37
2018-12-25T03:48:10.478Z,1028.36
2018-12-25T03:49:10.447Z,1028.42
2018-12-25T03:50:11.182Z,1028.42
2018-12-25T03:51:10.373Z,1028.39
2018-12-25T03:52:10.341Z,1028.37
2018-12-25T03:53:10.305Z,1028.37
2018-12-25T03:54:10.270Z,1028.40
2018-12-25T03:55:10.236Z,1028.42
2018-12-25T03:56:10.200Z,1028.39
2018-12-25T03:57:10.169Z,1028.40
2018-12-25T03:58:10.133Z,1028.37
2018-12-25T03:59:10.098Z,1028.36
2018-12-25T04:00:10.063Z,1028.35
2018-12-25T04:01:10.027Z,1028.37
2018-12-25T04:02:09.995Z,1028.36
2018-12-25T04:03:09.959Z,1028.33
2018-12-25T04:04:09.925Z,1028.36
2018-12-25T04:05:09.926Z,1028.34
2018-12-25T04:06:09.854Z,1028.33
2018-12-25T04:07:09.821Z,1028.35
2018-12-25T04:08:09.802Z,1028.31
2018-12-25T04:09:09.753Z,1028.32
2018-12-25T04:10:09.718Z,1028.32
2018-12-25T04:11:09.682Z,1028.36
2018-12-25T04:12:09.647Z,1028.34
2018-12-25T04:13:09.613Z,1028.37
2018-12-25T04:14:09.579Z,1028.36
2018-12-25T04:15:09.544Z,1028.34
2018-12-25T04:16:09.511Z,1028.38
2018-12-25T04:17:09.475Z,1028.36
2018-12-25T04:18:09.439Z,1028.41
2018-12-25T04:19:09.420Z,1028.43
2018-12-25T04:20:09.372Z,1028.45
2018-12-25T04:21:09.340Z,1028.45
2018-12-25T04:22:09.304Z,1028.42
2018-12-25T04:23:09.268Z,1028.46
2018-12-25T04:24:09.231Z,1028.49
2018-12-25T04:25:09.198Z,1028.44
2018-12-25T04:26:09.171Z,1028.44
2018-12-25T04:27:09.129Z,1028.51
2018-12-25T04:28:09.093Z,1028.48
2018-12-25T04:29:09.059Z,1028.48
2018-12-25T04:30:09.025Z,1028.45
2018-12-25T04:31:08.992Z,1028.45
2018-12-25T04:32:08.954Z,1028.40
2018-12-25T04:33:08.921Z,1028.41
2018-12-25T04:34:08.887Z,1028.37
2018-12-25T04:35:08.850Z,1028.36
2018-12-25T04:36:08.816Z,1028.40
2018-12-25T04:37:08.784Z,1028.34
2018-12-25T04:38:08.747Z,1028.36
2018-12-25T04:39:08.712Z,1028.34
2018-12-25T04:40:08.679Z,1028.28
2018-12-25T04:41:08.648Z,1028.27
2018-12-25T04:42:08.610Z,1028.29
2018-12-25T04:43:08.574Z,1028.28
2018-12-25T04:44:08.546Z,1028.31
2018-12-25T04:45:08.509Z,1028.31
2018-12-25T04:46:08.472Z,1028.30
2018-12-25T04:47:08.436Z,1028.29
2018-12-25T04:48:08.401Z,1028.31
2018-12-25T04:49:08.368Z,1028.32
2018-12-25T04:50:08.333Z,1028.29
2018-12-25T04:51:08.295Z,1028.27
2018-12-25T04:52:08.265Z,1028.27
2018-12-25T04:53:08.228Z,1028.30
2018-12-25T04:54:08.194Z,1028.26
2018-12-25T04:55:08.163Z,1028.24
2018-12-25T04:56:08.127Z,1028.26
2018-12-25T04:57:08.090Z,1028.26
2018-12-25T04:58:08.056Z,1028.27
2018-12-25T04:59:08.021Z,1028.24
2018-12-25T05:00:07.986Z,1028.29
2018-12-25T05:01:07.953Z,1028.25
2018-12-25T05:02:07.919Z,1028.26
2018-12-25T05:03:07.882Z,1028.23
2018-12-25T05:04:07.848Z,1028.26
2018-12-25T05:05:07.815Z,1028.26
2018-12-25T05:06:07.787Z,1028.27
2018-12-25T05:07:07.749Z,1028.26
2018-12-25T05:08:07.711Z,1028.28
2018-12-25T05:09:07.676Z,1028.27
2018-12-25T05:10:07.643Z,1028.27
2018-12-25T05:11:07.608Z,1028.31
2018-12-25T05:12:07.574Z,1028.30
2018-12-25T05:13:07.538Z,1028.29
2018-12-25T05:14:07.504Z,1028.27
2018-12-25T05:15:07.468Z,1028.24
2018-12-25T05:16:07.435Z,1028.25
2018-12-25T05:17:07.551Z,1028.23
2018-12-25T05:18:07.366Z,1028.26
2018-12-25T05:19:07.330Z,1028.27
2018-12-25T05:20:07.297Z,1028.29
2018-12-25T05:21:07.263Z,1028.32
2018-12-25T05:22:07.230Z,1028.23
2018-12-25T05:23:07.195Z,1028.22
2018-12-25T05:24:07.162Z,1028.13
2018-12-25T05:25:07.127Z,1028.15
2018-12-25T05:26:07.091Z,1028.13
2018-12-25T05:27:07.055Z,1028.16
2018-12-25T05:28:07.022Z,1028.18
2018-12-25T05:29:06.991Z,1028.21
2018-12-25T05:30:06.954Z,1028.16
2018-12-25T05:31:06.918Z,1028.17
2018-12-25T05:32:06.885Z,1028.15
2018-12-25T05:33:06.851Z,1028.17
2018-12-25T05:34:06.818Z,1028.19
2018-12-25T05:35:06.782Z,1028.16
2018-12-25T05:36:06.747Z,1028.15
2018-12-25T05:37:06.714Z,1028.18
2018-12-25T05:38:06.680Z,1028.18
2018-12-25T05:39:06.643Z,1028.19
2018-12-25T05:40:06.609Z,1028.19
2018-12-25T05:41:06.574Z,1028.21
2018-12-25T05:42:06.541Z,1028.22
2018-12-25T05:43:06.507Z,1028.23
2018-12-25T05:44:06.473Z,1028.22
2018-12-25T05:45:06.438Z,1028.25
2018-12-25T05:46:06.404Z,1028.25
2018-12-25T05:47:06.368Z,1028.27
2018-12-25T05:48:06.336Z,1028.27
2018-12-25T05:49:06.302Z,1028.26
2018-12-25T05:50:06.269Z,1028.23
2018-12-25T05:51:06.231Z,1028.18
2018-12-25T05:52:06.198Z,1028.17
2018-12-25T05:53:06.169Z,1028.13
2018-12-25T05:54:06.128Z,1028.17
2018-12-25T05:55:06.094Z,1028.15
2018-12-25T05:56:06.061Z,1028.16
2018-12-25T05:57:06.026Z,1028.14
2018-12-25T05:58:05.993Z,1028.15
2018-12-25T05:59:05.957Z,1028.15
2018-12-25T06:00:05.923Z,1028.18
2018-12-25T06:01:05.889Z,1028.21
2018-12-25T06:02:05.855Z,1028.20
2018-12-25T06:03:05.820Z,1028.28
2018-12-25T06:04:05.785Z,1028.21
2018-12-25T06:05:05.754Z,1028.25
2018-12-25T06:06:05.717Z,1028.23
2018-12-25T06:07:05.682Z,1028.23
2018-12-25T06:08:05.664Z,1028.32
2018-12-25T06:09:05.617Z,1028.30
2018-12-25T06:10:05.581Z,1028.33
2018-12-25T06:11:05.550Z,1028.30
2018-12-25T06:12:05.517Z,1028.27
2018-12-25T06:13:05.478Z,1028.26
2018-12-25T06:14:05.445Z,1028.22
2018-12-25T06:15:05.409Z,1028.22
2018-12-25T06:16:05.375Z,1028.30
2018-12-25T06:17:05.342Z,1028.33
2018-12-25T06:18:05.308Z,1028.33
2018-12-25T06:19:05.272Z,1028.40
2018-12-25T06:20:05.242Z,1028.39
2018-12-25T06:21:05.204Z,1028.46
2018-12-25T06:22:05.170Z,1028.44
2018-12-25T06:23:05.136Z,1028.47
2018-12-25T06:24:05.102Z,1028.44
2018-12-25T06:25:05.072Z,1028.44
2018-12-25T06:26:05.041Z,1028.44
2018-12-25T06:27:05.003Z,1028.43
2018-12-25T06:28:04.964Z,1028.42
2018-12-25T06:29:04.929Z,1028.38
2018-12-25T06:30:04.898Z,1028.36
2018-12-25T06:31:04.865Z,1028.24
2018-12-25T06:32:04.876Z,1028.23
2018-12-25T06:33:04.797Z,1028.22
2018-12-25T06:34:04.760Z,1028.21
2018-12-25T06:35:04.725Z,1028.21
2018-12-25T06:36:04.692Z,1028.28
2018-12-25T06:37:04.657Z,1028.33
2018-12-25T06:38:04.626Z,1028.33
2018-12-25T06:39:04.587Z,1028.32
2018-12-25T06:40:04.554Z,1028.27
2018-12-25T06:41:04.522Z,1028.22
2018-12-25T06:42:04.484Z,1028.21
2018-12-25T06:43:04.451Z,1028.20
2018-12-25T06:44:04.415Z,1028.22
2018-12-25T06:45:04.383Z,1028.24
2018-12-25T06:46:04.349Z,1028.27
2018-12-25T06:47:04.316Z,1028.25
2018-12-25T06:48:04.279Z,1028.24
2018-12-25T06:49:04.245Z,1028.24
2018-12-25T06:50:04.214Z,1028.27
2018-12-25T06:51:04.324Z,1028.25
2018-12-25T06:52:04.142Z,1028.25
2018-12-25T06:53:04.109Z,1028.21
2018-12-25T06:54:04.075Z,1028.18
2018-12-25T06:55:04.039Z,1028.20
2018-12-25T06:56:04.005Z,1028.19
2018-12-25T06:57:03.971Z,1028.19
2018-12-25T06:58:03.936Z,1028.15
2018-12-25T06:59:03.904Z,1028.07
2018-12-25T07:00:03.868Z,1027.98
2018-12-25T07:01:03.835Z,1027.92
2018-12-25T07:02:03.805Z,1027.89
2018-12-25T07:03:03.765Z,1027.84
2018-12-25T07:04:03.730Z,1027.84
2018-12-25T07:05:03.698Z,1027.78
2018-12-25T07:06:03.668Z,1027.85
2018-12-25T07:07:03.628Z,1027.83
2018-12-25T07:08:03.594Z,1027.89
2018-12-25T07:09:03.560Z,1027.86
2018-12-25T07:10:03.525Z,1027.91
2018-12-25T07:11:03.495Z,1027.89
2018-12-25T07:12:03.458Z,1027.96
2018-12-25T07:13:03.422Z,1028.02
2018-12-25T07:14:03.389Z,1027.96
2018-12-25T07:15:03.355Z,1028.02
2018-12-25T07:16:03.319Z,1028.02
2018-12-25T07:17:03.286Z,1027.97
2018-12-25T07:18:03.257Z,1028.04
2018-12-25T07:19:03.218Z,1028.09
2018-12-25T07:20:03.183Z,1028.12
2018-12-25T07:21:03.152Z,1028.07
2018-12-25T07:22:03.122Z,1028.00
2018-12-25T07:23:03.081Z,1027.96
2018-12-25T07:24:03.046Z,1027.85
2018-12-25T07:25:03.011Z,1027.91
2018-12-25T07:26:02.978Z,1027.90
2018-12-25T07:27:02.942Z,1027.95
2018-12-25T07:28:02.911Z,1027.98
2018-12-25T07:29:02.875Z,1028.00
2018-12-25T07:30:02.872Z,1027.99
2018-12-25T07:31:02.806Z,1027.94
2018-12-25T07:32:02.772Z,1027.97
2018-12-25T07:33:02.737Z,1027.92
2018-12-25T07:34:02.706Z,1027.90
2018-12-25T07:35:02.669Z,1027.82
2018-12-25T07:36:02.637Z,1027.87
2018-12-25T07:37:02.602Z,1027.85
2018-12-25T07:38:02.567Z,1027.86
2018-12-25T07:39:02.532Z,1027.89
2018-12-25T07:40:02.500Z,1027.86
2018-12-25T07:41:02.530Z,1027.83
2018-12-25T07:42:02.432Z,1027.80
2018-12-25T07:43:02.394Z,1027.85
2018-12-25T07:44:02.360Z,1027.82
2018-12-25T07:45:02.331Z,1027.89
2018-12-25T07:46:02.294Z,1027.87
2018-12-25T07:47:02.264Z,1027.82
2018-12-25T07:48:02.224Z,1027.81
2018-12-25T07:49:02.191Z,1027.77
2018-12-25T07:50:02.158Z,1027.78
2018-12-25T07:51:02.121Z,1027.76
2018-12-25T07:52:02.090Z,1027.82
2018-12-25T07:53:02.054Z,1027.73
2018-12-25T07:54:02.025Z,1027.71
2018-12-25T07:55:01.985Z,1027.76
2018-12-25T07:56:01.952Z,1027.74
2018-12-25T07:57:01.917Z,1027.75
2018-12-25T07:58:01.884Z,1027.75
2018-12-25T07:59:01.847Z,1027.78
2018-12-25T08:00:01.814Z,1027.74
2018-12-25T08:01:01.783Z,1027.75
2018-12-25T08:02:01.745Z,1027.73
2018-12-25T08:03:01.717Z,1027.72
2018-12-25T08:04:01.679Z,1027.64
2018-12-25T08:05:01.644Z,1027.64
2018-12-25T08:06:01.608Z,1027.76
2018-12-25T08:07:01.573Z,1027.77
2018-12-25T08:08:01.553Z,1027.75
2018-12-25T08:09:01.506Z,1027.83
2018-12-25T08:10:01.471Z,1027.76
2018-12-25T08:11:01.435Z,1027.79
2018-12-25T08:12:02.024Z,1027.78
2018-12-25T08:13:01.368Z,1027.90
2018-12-25T08:14:01.334Z,1027.82
2018-12-25T08:15:01.333Z,1027.79
2018-12-25T08:16:01.265Z,1027.77
2018-12-25T08:17:01.232Z,1027.72
2018-12-25T08:18:01.198Z,1027.67
2018-12-25T08:19:01.163Z,1027.65
2018-12-25T08:20:01.131Z,1027.68
2018-12-25T08:21:01.095Z,1027.70
2018-12-25T08:22:01.061Z,1027.75
2018-12-25T08:23:02.736Z,1027.81
2018-12-25T08:24:00.992Z,1027.81
2018-12-25T08:25:00.958Z,1027.76
2018-12-25T08:26:00.925Z,1027.81
2018-12-25T08:27:00.889Z,1027.75
2018-12-25T08:28:00.855Z,1027.82
2018-12-25T08:29:00.822Z,1027.76
2018-12-25T08:30:00.788Z,1027.75
2018-12-25T08:31:00.753Z,1027.78
2018-12-25T08:32:00.720Z,1027.73
2018-12-25T08:33:00.686Z,1027.74
2018-12-25T08:34:00.651Z,1027.70
2018-12-25T08:35:00.654Z,1027.63
2018-12-25T08:36:00.582Z,1027.67
2018-12-25T08:37:00.549Z,1027.70
2018-12-25T08:38:00.515Z,1027.66
2018-12-25T08:39:00.480Z,1027.65
2018-12-25T08:40:00.447Z,1027.67
2018-12-25T08:41:00.412Z,1027.71
2018-12-25T08:42:00.377Z,1027.67
2018-12-25T08:43:00.344Z,1027.68
2018-12-25T08:44:00.310Z,1027.69
2018-12-25T08:45:00.275Z,1027.75
2018-12-25T08:46:00.242Z,1027.75
2018-12-25T08:47:02.503Z,1027.74
2018-12-25T08:48:00.174Z,1027.79
2018-12-25T08:49:00.144Z,1027.78
2018-12-25T08:50:00.155Z,1027.82
2018-12-25T08:51:00.070Z,1027.86
2018-12-25T08:52:00.037Z,1027.88
2018-12-25T08:53:00.003Z,1027.83
2018-12-25T08:53:59.969Z,1027.93
2018-12-25T08:54:59.934Z,1027.93
2018-12-25T08:55:59.900Z,1027.92
2018-12-25T08:56:59.867Z,1027.95
2018-12-25T08:57:59.832Z,1028.03
2018-12-25T08:58:59.796Z,1028.06
2018-12-25T08:59:59.762Z,1027.98
2018-12-25T09:00:59.729Z,1028.02
2018-12-25T09:01:59.696Z,1028.03
2018-12-25T09:02:59.663Z,1028.09
2018-12-25T09:03:59.629Z,1028.01
2018-12-25T09:04:59.596Z,1028.06
2018-12-25T09:05:59.561Z,1028.07
2018-12-25T09:06:59.525Z,1028.10
2018-12-25T09:07:59.492Z,1028.04
2018-12-25T09:08:59.460Z,1028.01
2018-12-25T09:09:59.426Z,1028.02
2018-12-25T09:10:59.391Z,1027.97
2018-12-25T09:11:59.356Z,1027.91
2018-12-25T09:12:59.324Z,1027.98
2018-12-25T09:13:59.292Z,1027.91
2018-12-25T09:14:59.256Z,1027.97
2018-12-25T09:15:59.223Z,1027.96
2018-12-25T09:16:59.190Z,1027.94
2018-12-25T09:17:59.156Z,1027.95
2018-12-25T09:18:59.120Z,1027.92
2018-12-25T09:19:59.087Z,1027.86
2018-12-25T09:20:59.056Z,1027.94
2018-12-25T09:21:59.021Z,1027.96
2018-12-25T09:22:58.987Z,1027.99
2018-12-25T09:23:58.951Z,1028.06
2018-12-25T09:24:58.920Z,1028.02
2018-12-25T09:25:58.885Z,1027.98
2018-12-25T09:26:58.855Z,1027.98
2018-12-25T09:27:58.821Z,1027.96
2018-12-25T09:28:58.785Z,1027.98
2018-12-25T09:29:58.752Z,1028.00
2018-12-25T09:30:58.718Z,1028.00
2018-12-25T09:31:58.685Z,1028.00
2018-12-25T09:32:58.651Z,1027.90
2018-12-25T09:33:58.616Z,1027.91
2018-12-25T09:34:58.583Z,1027.89
2018-12-25T09:35:58.551Z,1027.91
2018-12-25T09:36:58.516Z,1027.90
2018-12-25T09:37:58.485Z,1027.80
2018-12-25T09:38:58.450Z,1027.86
2018-12-25T09:39:58.417Z,1027.84
2018-12-25T09:40:58.384Z,1027.79
2018-12-25T09:41:58.348Z,1027.78
2018-12-25T09:42:58.315Z,1027.82
2018-12-25T09:43:58.285Z,1027.81
2018-12-25T09:44:58.248Z,1027.76
2018-12-25T09:45:58.218Z,1027.74
2018-12-25T09:46:58.181Z,1027.79
2018-12-25T09:47:58.147Z,1027.77
2018-12-25T09:48:58.114Z,1027.78
2018-12-25T09:49:58.082Z,1027.75
2018-12-25T09:50:58.046Z,1027.74
2018-12-25T09:51:58.013Z,1027.70
2018-12-25T09:52:57.984Z,1027.70
2018-12-25T09:53:57.946Z,1027.70
2018-12-25T09:54:57.914Z,1027.66
2018-12-25T09:55:57.879Z,1027.69
2018-12-25T09:56:57.846Z,1027.72
2018-12-25T09:57:57.812Z,1027.82
2018-12-25T09:58:57.779Z,1027.73
2018-12-25T09:59:57.746Z,1027.74
2018-12-25T10:00:57.713Z,1027.74
2018-12-25T10:01:57.678Z,1027.83
2018-12-25T10:02:57.645Z,1027.78
2018-12-25T10:03:57.612Z,1027.79
2018-12-25T10:04:57.578Z,1027.77
2018-12-25T10:05:57.545Z,1027.80
2018-12-25T10:06:57.511Z,1027.78
2018-12-25T10:07:57.478Z,1027.73
2018-12-25T10:08:57.445Z,1027.76
2018-12-25T10:09:57.411Z,1027.79
2018-12-25T10:10:57.376Z,1027.83
2018-12-25T10:11:57.343Z,1027.80
2018-12-25T10:12:57.311Z,1027.79
2018-12-25T10:13:57.278Z,1027.86
2018-12-25T10:14:57.243Z,1027.84
2018-12-25T10:15:57.214Z,1027.86
2018-12-25T10:16:57.178Z,1027.82
2018-12-25T10:17:57.145Z,1027.81
2018-12-25T10:18:57.114Z,1027.85
2018-12-25T10:19:57.077Z,1027.87
2018-12-25T10:20:57.045Z,1027.82
2018-12-25T10:22:02.923Z,1027.85
2018-12-25T10:22:56.977Z,1027.87
2018-12-25T10:23:56.945Z,1027.89
2018-12-25T10:24:56.911Z,1027.85
2018-12-25T10:25:56.882Z,1027.81
2018-12-25T10:26:56.844Z,1027.82
2018-12-25T10:27:56.810Z,1027.83
2018-12-25T10:28:56.778Z,1027.86
2018-12-25T10:29:56.744Z,1027.89
2018-12-25T10:30:56.711Z,1027.87
2018-12-25T10:31:56.677Z,1027.91
2018-12-25T10:32:56.644Z,1027.84
2018-12-25T10:33:56.612Z,1027.80
2018-12-25T10:34:56.577Z,1027.82
2018-12-25T10:35:56.546Z,1027.77
2018-12-25T10:36:56.512Z,1027.86
2018-12-25T10:37:56.479Z,1027.88
2018-12-25T10:38:56.444Z,1027.86
2018-12-25T10:39:56.413Z,1027.75
2018-12-25T10:40:56.379Z,1027.76
2018-12-25T10:41:56.346Z,1027.73
2018-12-25T10:42:56.312Z,1027.71
2018-12-25T10:43:56.280Z,1027.68
2018-12-25T10:44:56.246Z,1027.74
2018-12-25T10:45:56.215Z,1027.75
2018-12-25T10:46:56.181Z,1027.72
2018-12-25T10:47:56.149Z,1027.75
2018-12-25T10:48:56.113Z,1027.68
2018-12-25T10:49:56.088Z,1027.67
2018-12-25T10:50:56.046Z,1027.66
2018-12-25T10:51:56.014Z,1027.66
2018-12-25T10:52:55.981Z,1027.61
2018-12-25T10:53:55.947Z,1027.67
2018-12-25T10:54:55.914Z,1027.67
2018-12-25T10:55:55.881Z,1027.63
2018-12-25T10:56:55.848Z,1027.62
2018-12-25T10:57:55.818Z,1027.57
2018-12-25T10:58:55.783Z,1027.63
2018-12-25T10:59:55.749Z,1027.64
2018-12-25T11:00:55.719Z,1027.64
2018-12-25T11:01:55.683Z,1027.65
2018-12-25T11:02:55.649Z,1027.58
2018-12-25T11:03:55.766Z,1027.65
2018-12-25T11:04:55.584Z,1027.61
2018-12-25T11:05:55.640Z,1027.61
2018-12-25T11:06:55.519Z,1027.65
2018-12-25T11:07:55.487Z,1027.59
2018-12-25T11:08:55.453Z,1027.64
2018-12-25T11:09:55.420Z,1027.65
2018-12-25T11:10:55.392Z,1027.63
2018-12-25T11:11:55.352Z,1027.63
2018-12-25T11:12:55.320Z,1027.68
2018-12-25T11:13:55.288Z,1027.67
2018-12-25T11:14:56.256Z,1027.66
2018-12-25T11:15:55.222Z,1027.69
2018-12-25T11:16:55.189Z,1027.68
2018-12-25T11:17:55.156Z,1027.71
2018-12-25T11:18:55.121Z,1027.69
2018-12-25T11:19:55.089Z,1027.71
2018-12-25T11:20:55.057Z,1027.73
2018-12-25T11:21:55.023Z,1027.68
2018-12-25T11:22:54.990Z,1027.64
2018-12-25T11:23:54.956Z,1027.60
2018-12-25T11:24:54.923Z,1027.56
2018-12-25T11:25:54.898Z,1027.57
2018-12-25T11:26:54.856Z,1027.48
2018-12-25T11:27:54.825Z,1027.46
2018-12-25T11:28:54.792Z,1027.48
2018-12-25T11:29:54.760Z,1027.44
2018-12-25T11:30:54.729Z,1027.42
2018-12-25T11:31:54.694Z,1027.36
2018-12-25T11:32:54.661Z,1027.34
2018-12-25T11:33:54.632Z,1027.32
2018-12-25T11:34:54.593Z,1027.31
2018-12-25T11:35:54.561Z,1027.33
2018-12-25T11:36:54.529Z,1027.30
2018-12-25T11:37:54.496Z,1027.25
2018-12-25T11:38:54.462Z,1027.32
2018-12-25T11:39:54.450Z,1027.29
2018-12-25T11:40:54.397Z,1027.32
2018-12-25T11:41:54.364Z,1027.30
2018-12-25T11:42:54.330Z,1027.36
2018-12-25T11:43:54.298Z,1027.34
2018-12-25T11:44:54.265Z,1027.43
2018-12-25T11:45:54.234Z,1027.37
2018-12-25T11:46:54.200Z,1027.38
2018-12-25T11:47:54.168Z,1027.37
2018-12-25T11:48:54.134Z,1027.39
2018-12-25T11:49:54.180Z,1027.39
2018-12-25T11:50:54.068Z,1027.39
2018-12-25T11:51:54.036Z,1027.38
2018-12-25T11:52:54.002Z,1027.43
2018-12-25T11:53:53.970Z,1027.41
2018-12-25T11:54:53.936Z,1027.40
2018-12-25T11:55:53.904Z,1027.45
2018-12-25T11:56:53.952Z,1027.37
2018-12-25T11:57:53.836Z,1027.43
2018-12-25T11:58:53.804Z,1027.44
2018-12-25T11:59:53.778Z,1027.38
2018-12-25T12:00:53.740Z,1027.42
2018-12-25T12:01:53.709Z,1027.50
2018-12-25T12:02:53.673Z,1027.53
2018-12-25T12:03:53.641Z,1027.43
2018-12-25T12:04:53.610Z,1027.47